Time;durP1;ratioP1;P1;durP2;ratioP2;P2;SDS_P1;SDS_P2;PMS_P1;PMS_P2;Temp;Humidity;BMP_temperature;BMP_pressure;BME280_temperature;BME280_humidity;BME280_pressure;Samples;Min_cycle;Max_cycle;Signal;HPM_P1;HPM_P2
2023/05/14 00:01:06;;;;;;;32.40;18.90;;;;;;;6.26;79.02;99523.14;273656;1269;22232;-83
2023/05/14 00:07:11;;;;;;;28.00;19.10;;;;;;;6.20;79.54;99522.23;273733;1262;22344;-83
2023/05/14 00:13:12;;;;;;;31.10;17.50;;;;;;;6.17;80.18;99520.72;273751;1269;22401;-84
2023/05/14 00:19:13;;;;;;;26.80;16.80;;;;;;;6.17;80.56;99522.27;273420;1270;23722;-83
2023/05/14 00:25:15;;;;;;;26.10;16.60;;;;;;;6.16;81.23;99517.86;273519;1270;22412;-86
2023/05/14 00:31:18;;;;;;;26.80;16.40;;;;;;;6.19;81.40;99521.26;273519;1269;22221;-83
2023/05/14 00:37:19;;;;;;;27.30;15.60;;;;;;;6.16;81.68;99518.71;273596;1269;22200;-83
2023/05/14 00:43:21;;;;;;;22.80;15.50;;;;;;;6.06;82.04;99519.31;273724;1270;22516;-84
2023/05/14 00:49:22;;;;;;;32.10;17.00;;;;;;;6.00;82.18;99521.79;273629;1268;22303;-84
2023/05/14 00:55:24;;;;;;;26.30;15.10;;;;;;;5.95;82.53;99524.30;273534;1259;22344;-83
2023/05/14 01:01:27;;;;;;;29.00;17.70;;;;;;;5.84;82.78;99528.79;273248;1269;22934;-83
2023/05/14 01:07:51;;;;;;;28.60;17.90;;;;;;;5.68;82.84;99532.50;271378;1271;24033;-83
2023/05/14 01:14:20;;;;;;;27.60;16.90;;;;;;;5.54;83.27;99535.27;272868;1262;22208;-82
2023/05/14 01:20:22;;;;;;;31.20;16.30;;;;;;;5.51;83.66;99530.73;272730;1269;24753;-82
2023/05/14 01:26:23;;;;;;;25.60;16.30;;;;;;;5.49;83.57;99529.40;272806;1259;236794;-85
2023/05/14 01:32:24;;;;;;;26.30;16.30;;;;;;;5.39;84.02;99528.92;273503;1261;23428;-83
2023/05/14 01:38:26;;;;;;;24.40;15.70;;;;;;;5.41;84.57;99534.30;273473;1257;22271;-83
2023/05/14 01:44:27;;;;;;;22.50;14.50;;;;;;;5.40;84.67;99534.08;273259;1272;22413;-83
2023/05/14 01:50:32;;;;;;;26.40;15.50;;;;;;;5.38;85.21;99528.86;273200;1270;22452;-83
2023/05/14 01:56:37;;;;;;;22.60;15.00;;;;;;;5.36;84.39;99523.92;272171;1259;23447;-82
2023/05/14 02:02:37;;;;;;;25.20;15.50;;;;;;;5.26;84.91;99521.55;273085;1269;22999;-83
2023/05/14 02:08:40;;;;;;;28.50;16.90;;;;;;;5.18;85.19;99514.18;272617;1270;22339;-83
2023/05/14 02:14:45;;;;;;;25.30;15.80;;;;;;;5.12;85.38;99511.14;273385;1269;22261;-83
2023/05/14 02:20:47;;;;;;;28.20;16.00;;;;;;;5.11;86.25;99509.55;273264;1269;22230;-83
2023/05/14 02:26:48;;;;;;;21.70;14.00;;;;;;;5.14;86.58;99510.70;273676;1257;22240;-83
2023/05/14 02:32:52;;;;;;;22.50;15.40;;;;;;;5.05;86.08;99503.61;273668;1270;22317;-84
2023/05/14 02:38:53;;;;;;;26.30;14.80;;;;;;;4.88;86.04;99486.91;273318;1269;23350;-83
2023/05/14 02:44:54;;;;;;;25.80;16.80;;;;;;;4.70;86.33;99481.85;272926;1260;22793;-83
2023/05/14 02:50:55;;;;;;;27.60;15.50;;;;;;;4.64;86.53;99481.65;273203;1267;22382;-83
2023/05/14 02:56:56;;;;;;;25.10;14.80;;;;;;;4.63;87.03;99475.02;273689;1254;22292;-83
2023/05/14 03:02:57;;;;;;;23.10;14.70;;;;;;;4.56;86.06;99473.96;272469;1270;22291;-83
2023/05/14 03:08:58;;;;;;;26.20;15.80;;;;;;;4.56;87.80;99471.11;273333;1260;22319;-84
2023/05/14 03:14:59;;;;;;;24.90;16.60;;;;;;;4.64;88.32;99465.00;273514;1270;22492;-85
2023/05/14 03:21:00;;;;;;;23.10;15.60;;;;;;;4.57;87.80;99461.21;273636;1264;22346;-86
2023/05/14 03:27:03;;;;;;;23.40;14.60;;;;;;;4.55;87.19;99475.48;272135;1269;24025;-84
2023/05/14 03:33:04;;;;;;;22.00;14.40;;;;;;;4.70;89.48;99482.77;270747;1270;22557;-86
2023/05/14 03:39:05;;;;;;;25.10;14.90;;;;;;;4.86;89.68;99484.41;271140;1270;22561;-84
2023/05/14 03:45:07;;;;;;;21.30;14.70;;;;;;;4.86;89.38;99484.92;270827;1264;22547;-85
2023/05/14 03:51:08;;;;;;;24.70;17.10;;;;;;;4.90;89.89;99473.99;271430;1264;22452;-86
2023/05/14 03:57:10;;;;;;;22.50;15.70;;;;;;;5.10;91.04;99469.05;273270;1269;22610;-84
2023/05/14 04:03:11;;;;;;;28.40;17.40;;;;;;;5.33;91.58;99458.78;270941;1269;22545;-84
2023/05/14 04:09:12;;;;;;;24.70;17.60;;;;;;;5.46;91.66;99452.25;271166;1264;22579;-83
2023/05/14 04:15:13;;;;;;;19.30;14.00;;;;;;;5.63;92.34;99458.33;270303;1260;22517;-83
2023/05/14 04:21:14;;;;;;;23.50;16.40;;;;;;;5.83;92.69;99459.79;270426;1269;23764;-85
2023/05/14 04:27:20;;;;;;;21.60;15.90;;;;;;;5.99;92.79;99462.66;270955;1269;22344;-82
2023/05/14 04:33:21;;;;;;;22.80;15.10;;;;;;;6.15;92.88;99462.86;271430;1270;22654;-84
2023/05/14 04:39:22;;;;;;;20.80;14.30;;;;;;;6.34;92.99;99460.95;270936;1269;22347;-83
2023/05/14 04:45:23;;;;;;;21.10;15.90;;;;;;;6.56;93.31;99465.21;271209;1269;22520;-84
2023/05/14 04:51:25;;;;;;;26.70;15.70;;;;;;;6.80;92.92;99460.91;272369;1269;22420;-83
2023/05/14 04:57:26;;;;;;;24.00;15.90;;;;;;;7.07;92.84;99464.36;273536;1254;22415;-84
2023/05/14 05:03:30;;;;;;;19.90;13.70;;;;;;;7.34;92.43;99458.15;273663;1269;22349;-83
2023/05/14 05:09:31;;;;;;;17.80;13.10;;;;;;;7.66;92.46;99458.50;273460;1260;22330;-83
2023/05/14 05:15:32;;;;;;;16.80;12.40;;;;;;;8.05;92.28;99456.52;273679;1256;22429;-84
2023/05/14 05:21:33;;;;;;;15.00;10.60;;;;;;;8.46;91.64;99451.36;273440;1259;22490;-85
2023/05/14 05:27:34;;;;;;;13.30;8.90;;;;;;;8.90;90.93;99447.20;273584;1269;22988;-82
2023/05/14 05:33:41;;;;;;;10.60;8.30;;;;;;;9.20;89.83;99442.48;273564;1254;23146;-85
2023/05/14 05:39:42;;;;;;;12.10;8.80;;;;;;;9.46;89.24;99430.81;273487;1259;22204;-84
2023/05/14 05:45:44;;;;;;;11.70;8.70;;;;;;;9.66;88.99;99429.92;273492;1261;22231;-84
2023/05/14 05:51:47;;;;;;;14.50;9.30;;;;;;;9.84;88.44;99426.55;273556;1266;22293;-83
2023/05/14 05:57:47;;;;;;;12.50;8.70;;;;;;;10.01;88.35;99433.88;273468;1260;22338;-83
2023/05/14 06:03:48;;;;;;;11.60;8.00;;;;;;;10.21;87.90;99429.45;273456;1269;22320;-86
2023/05/14 06:10:00;;;;;;;12.90;7.90;;;;;;;10.49;88.07;99414.64;273104;1269;22560;-85
2023/05/14 06:16:05;;;;;;;9.30;6.70;;;;;;;10.81;87.68;99413.80;273235;1269;22277;-85
2023/05/14 06:22:06;;;;;;;9.90;6.20;;;;;;;11.14;87.13;99413.86;273154;1260;22269;-84
2023/05/14 06:28:08;;;;;;;9.90;6.50;;;;;;;11.52;86.72;99409.25;273220;1269;23608;-83
2023/05/14 06:34:09;;;;;;;9.80;6.30;;;;;;;11.90;86.70;99407.27;273427;1264;22344;-84
2023/05/14 06:40:11;;;;;;;8.40;5.90;;;;;;;12.22;85.64;99405.30;273556;1257;22279;-83
2023/05/14 06:46:15;;;;;;;9.10;5.90;;;;;;;12.51;84.63;99394.30;273558;1256;22285;-84
2023/05/14 06:52:17;;;;;;;7.20;5.10;;;;;;;12.91;84.28;99391.91;273106;1269;22483;-83
2023/05/14 06:58:18;;;;;;;9.30;5.30;;;;;;;13.49;83.82;99398.14;273594;1256;22511;-84
2023/05/14 07:04:19;;;;;;;7.50;5.00;;;;;;;13.94;82.60;99394.67;273420;1265;22227;-83
2023/05/14 07:10:22;;;;;;;9.20;5.00;;;;;;;14.23;82.19;99394.25;273634;1256;22517;-86
2023/05/14 07:16:45;;;;;;;5.70;3.70;;;;;;;14.44;80.34;99390.92;273438;1262;22407;-87
2023/05/14 07:22:54;;;;;;;7.30;3.50;;;;;;;14.79;79.19;99399.31;273356;1269;22240;-86
2023/05/14 07:28:55;;;;;;;5.70;3.20;;;;;;;15.12;77.37;99407.98;273557;1261;22235;-84
2023/05/14 07:35:08;;;;;;;4.30;3.10;;;;;;;15.58;76.34;99405.08;273028;1268;22299;-86
2023/05/14 07:41:10;;;;;;;4.70;3.70;;;;;;;15.95;74.58;99393.21;273715;1258;22379;-83
2023/05/14 07:47:11;;;;;;;6.00;3.40;;;;;;;16.54;73.17;99383.54;273044;1259;22330;-85
2023/05/14 07:53:14;;;;;;;6.60;3.40;;;;;;;17.03;71.18;99374.30;271465;1269;23204;-86
2023/05/14 07:59:19;;;;;;;5.10;3.30;;;;;;;17.32;70.32;99368.20;272730;1264;23048;-85
2023/05/14 08:05:20;;;;;;;4.30;3.10;;;;;;;17.56;69.09;99364.41;271603;1259;22569;-83
2023/05/14 08:11:21;;;;;;;4.40;3.20;;;;;;;17.54;67.66;99352.02;271599;1259;22158;-84
2023/05/14 08:17:26;;;;;;;3.90;3.40;;;;;;;17.85;67.67;99345.63;273536;1269;22515;-86
2023/05/14 08:23:27;;;;;;;5.00;3.00;;;;;;;18.21;66.20;99337.86;273343;1260;23338;-86
2023/05/14 08:29:28;;;;;;;5.40;3.40;;;;;;;18.35;65.00;99328.17;273533;1259;22331;-84
2023/05/14 08:35:34;;;;;;;5.90;2.60;;;;;;;18.29;63.88;99324.69;273540;1256;22225;-85
2023/05/14 08:41:36;;;;;;;4.40;3.00;;;;;;;18.26;62.96;99324.02;272372;1259;25885;-82
2023/05/14 08:47:37;;;;;;;3.90;3.10;;;;;;;18.25;62.57;99318.18;271151;1266;24232;-86
2023/05/14 08:53:39;;;;;;;5.10;2.60;;;;;;;18.29;61.95;99314.80;271878;1269;23210;-84
2023/05/14 08:59:46;;;;;;;3.90;2.70;;;;;;;18.38;61.13;99315.79;272144;1257;22610;-84
2023/05/14 09:05:48;;;;;;;4.70;2.80;;;;;;;18.61;60.94;99307.11;273048;1269;22252;-85
2023/05/14 09:12:09;;;;;;;3.90;2.80;;;;;;;18.86;59.93;99302.34;272046;1263;22280;-84
2023/05/14 09:18:10;;;;;;;3.40;2.10;;;;;;;19.05;58.65;99297.80;273520;1269;22240;-84
2023/05/14 09:24:23;;;;;;;5.20;2.00;;;;;;;19.32;58.01;99289.77;273595;1269;22214;-83
2023/05/14 09:30:27;;;;;;;3.50;1.90;;;;;;;19.79;57.10;99282.72;273429;1269;22236;-85
2023/05/14 09:36:29;;;;;;;2.60;1.70;;;;;;;19.96;56.00;99275.11;273068;1269;22319;-85
2023/05/14 09:42:30;;;;;;;4.10;1.70;;;;;;;20.15;55.37;99268.34;271028;1269;22208;-86
2023/05/14 09:48:31;;;;;;;2.30;1.60;;;;;;;20.75;54.68;99261.23;271216;1257;22316;-83
2023/05/14 09:54:32;;;;;;;2.00;1.30;;;;;;;21.06;53.84;99257.02;272354;1256;22454;-85
2023/05/14 10:00:34;;;;;;;1.50;1.20;;;;;;;21.17;53.05;99248.54;273607;1269;22315;-84
2023/05/14 10:06:38;;;;;;;2.30;1.40;;;;;;;21.40;52.61;99245.98;273654;1269;22330;-83
2023/05/14 10:12:39;;;;;;;2.90;1.10;;;;;;;21.51;51.95;99241.20;273731;1256;22212;-82
2023/05/14 10:18:44;;;;;;;1.80;1.00;;;;;;;21.28;50.22;99236.61;271562;1269;22569;-85
2023/05/14 10:24:46;;;;;;;1.90;1.20;;;;;;;21.08;49.06;99222.71;271748;1260;22540;-83
2023/05/14 10:30:49;;;;;;;2.70;1.20;;;;;;;20.95;48.46;99209.23;272639;1269;22266;-85
2023/05/14 10:36:51;;;;;;;1.70;1.30;;;;;;;21.04;48.64;99199.11;272390;1269;22342;-83
2023/05/14 10:42:52;;;;;;;1.80;1.60;;;;;;;21.16;47.99;99190.58;273705;1258;22347;-84
2023/05/14 10:48:56;;;;;;;3.10;1.20;;;;;;;21.23;47.97;99178.36;273761;1269;22228;-81
2023/05/14 10:54:59;;;;;;;2.60;1.80;;;;;;;21.46;47.86;99165.04;273559;1269;22408;-85
2023/05/14 11:01:06;;;;;;;1.50;1.10;;;;;;;21.80;47.53;99155.56;273600;1269;23201;-88
2023/05/14 11:07:08;;;;;;;4.00;1.50;;;;;;;21.98;47.48;99145.38;273303;1269;22349;-84
2023/05/14 11:13:10;;;;;;;3.50;1.50;;;;;;;22.21;47.87;99135.29;273630;1256;23086;-83
2023/05/14 11:19:20;;;;;;;2.60;1.40;;;;;;;22.25;46.98;99123.13;272240;1269;23299;-84
2023/05/14 11:25:24;;;;;;;2.00;1.50;;;;;;;22.09;45.88;99114.80;270762;1269;23607;-83
2023/05/14 11:31:25;;;;;;;4.10;1.60;;;;;;;21.86;45.57;99121.19;272221;1257;22535;-84
2023/05/14 11:37:26;;;;;;;2.30;1.50;;;;;;;21.81;45.00;99119.02;271792;1269;22965;-84
2023/05/14 11:43:28;;;;;;;3.60;1.50;;;;;;;21.63;45.09;99113.33;271883;1261;22969;-84
2023/05/14 11:49:28;;;;;;;1.70;1.40;;;;;;;21.56;44.52;99115.96;273617;1257;22503;-82
2023/05/14 11:55:30;;;;;;;2.40;1.50;;;;;;;21.40;44.55;99111.67;273699;1257;22478;-83
2023/05/14 12:01:40;;;;;;;4.00;1.50;;;;;;;21.63;44.73;99101.65;273723;1269;22198;-84
2023/05/14 12:07:44;;;;;;;3.50;1.20;;;;;;;21.75;43.91;99091.23;273169;1260;22323;-82
2023/05/14 12:13:45;;;;;;;1.70;1.30;;;;;;;21.55;43.06;99075.72;273474;1269;22362;-85
2023/05/14 12:19:50;;;;;;;2.20;1.20;;;;;;;21.55;43.35;99060.25;273726;1254;22144;-83
2023/05/14 12:25:51;;;;;;;2.70;1.40;;;;;;;21.58;43.45;99047.52;273841;1257;22260;-85
2023/05/14 12:31:52;;;;;;;3.30;1.50;;;;;;;21.41;43.29;99045.94;273811;1269;22635;-82
2023/05/14 12:37:53;;;;;;;4.90;1.30;;;;;;;21.20;43.61;99037.13;273620;1269;22197;-84
2023/05/14 12:43:55;;;;;;;1.90;1.40;;;;;;;21.19;43.43;99030.97;273357;1260;22376;-85
2023/05/14 12:49:59;;;;;;;2.10;1.20;;;;;;;21.17;43.11;99029.52;273162;1269;23792;-84
2023/05/14 12:55:59;;;;;;;1.50;0.90;;;;;;;21.13;43.33;99018.73;271444;1259;22552;-84
2023/05/14 13:02:01;;;;;;;2.00;1.20;;;;;;;21.17;43.21;99015.17;270774;1269;22335;-84
2023/05/14 13:08:03;;;;;;;1.80;1.10;;;;;;;21.20;43.18;99021.62;271031;1270;22595;-83
2023/05/14 13:14:04;;;;;;;4.10;1.40;;;;;;;21.17;43.32;99019.77;271501;1259;25442;-83
2023/05/14 13:20:06;;;;;;;3.90;1.60;;;;;;;21.17;43.84;99002.12;272722;1269;22235;-82
2023/05/14 13:26:07;;;;;;;3.40;1.60;;;;;;;21.05;43.34;99001.46;273007;1269;301526;-83
2023/05/14 13:32:08;;;;;;;2.40;1.20;;;;;;;20.94;43.74;98998.38;272667;1269;22799;-82
2023/05/14 13:38:09;;;;;;;3.90;1.50;;;;;;;20.86;43.41;98998.16;272236;1269;22195;-84
2023/05/14 13:44:10;;;;;;;1.90;1.30;;;;;;;20.65;43.29;98989.24;265621;1269;10001231;-83
2023/05/14 13:50:11;;;;;;;2.80;1.50;;;;;;;20.54;43.38;98969.23;273245;1262;22491;-83
2023/05/14 13:56:12;;;;;;;2.50;1.70;;;;;;;20.45;43.74;98964.16;273414;1259;23406;-84
2023/05/14 14:02:14;;;;;;;3.30;1.60;;;;;;;20.35;43.95;98945.48;273450;1269;22333;-84
2023/05/14 14:08:19;;;;;;;4.60;1.60;;;;;;;20.22;44.05;98938.88;273372;1269;22807;-86
2023/05/14 14:14:21;;;;;;;4.40;1.50;;;;;;;20.11;44.13;98925.71;273037;1269;22333;-84
2023/05/14 14:20:22;;;;;;;4.50;1.80;;;;;;;20.01;43.78;98919.73;273301;1262;22292;-84
2023/05/14 14:26:23;;;;;;;2.40;1.50;;;;;;;19.88;43.74;98920.34;273366;1266;22340;-85
2023/05/14 14:32:24;;;;;;;1.70;1.30;;;;;;;19.79;43.77;98913.44;273412;1265;22841;-86
2023/05/14 14:38:25;;;;;;;2.10;1.40;;;;;;;19.70;43.84;98903.60;273445;1269;22451;-85
2023/05/14 14:44:27;;;;;;;1.80;1.20;;;;;;;19.64;44.00;98897.73;273441;1269;22456;-83
2023/05/14 14:50:29;;;;;;;2.00;1.40;;;;;;;19.60;44.26;98887.86;272960;1261;22269;-85
2023/05/14 14:56:34;;;;;;;4.40;1.50;;;;;;;19.54;44.45;98878.33;272698;1260;22279;-85
2023/05/14 15:02:40;;;;;;;2.20;1.20;;;;;;;19.51;44.49;98870.41;273112;1269;22380;-84
2023/05/14 15:08:45;;;;;;;2.70;1.30;;;;;;;19.50;44.41;98864.49;273434;1269;22207;-85
2023/05/14 15:14:47;;;;;;;2.30;1.60;;;;;;;19.48;44.75;98855.58;273274;1269;23532;-84
2023/05/14 15:20:48;;;;;;;1.90;1.70;;;;;;;19.46;44.82;98847.55;273458;1269;22541;-84
2023/05/14 15:26:49;;;;;;;2.20;1.50;;;;;;;19.45;44.94;98849.40;273228;1262;22586;-84
2023/05/14 15:32:50;;;;;;;4.60;1.40;;;;;;;19.40;44.89;98850.33;272186;1259;22530;-85
2023/05/14 15:38:52;;;;;;;5.30;1.60;;;;;;;19.32;45.01;98860.05;271808;1269;23528;-85
2023/05/14 15:44:54;;;;;;;1.90;1.60;;;;;;;19.21;45.28;98856.10;272553;1265;22422;-83
2023/05/14 15:50:57;;;;;;;4.10;1.70;;;;;;;19.12;45.67;98851.34;273443;1268;22564;-86
2023/05/14 15:57:00;;;;;;;3.70;1.60;;;;;;;19.05;46.08;98839.09;272475;1269;22196;-84
2023/05/14 16:03:02;;;;;;;3.00;1.90;;;;;;;18.97;46.43;98828.56;273309;1262;22440;-84
2023/05/14 16:09:03;;;;;;;2.80;2.10;;;;;;;18.91;46.91;98821.77;273457;1259;22196;-84
2023/05/14 16:15:06;;;;;;;2.90;1.90;;;;;;;18.85;47.25;98816.13;273186;1260;22411;-84
2023/05/14 16:21:08;;;;;;;3.10;2.00;;;;;;;18.79;47.56;98814.77;273135;1263;22233;-83
2023/05/14 16:27:22;;;;;;;4.70;2.50;;;;;;;18.72;47.84;98810.73;273493;1269;22331;-84
2023/05/14 16:33:23;;;;;;;5.90;2.40;;;;;;;18.64;48.22;98803.64;273403;1260;23370;-84
2023/05/14 16:39:24;;;;;;;5.60;3.00;;;;;;;18.57;48.53;98801.91;273375;1260;23695;-85
2023/05/14 16:45:25;;;;;;;6.20;2.60;;;;;;;18.49;48.92;98800.69;273401;1259;22375;-85
2023/05/14 16:51:26;;;;;;;8.10;3.30;;;;;;;18.41;49.26;98801.17;273394;1269;22307;-85
2023/05/14 16:57:27;;;;;;;8.30;3.60;;;;;;;18.32;49.64;98795.04;273357;1269;23506;-85
2023/05/14 17:03:28;;;;;;;6.50;3.60;;;;;;;18.25;49.94;98784.44;273381;1267;22334;-84
2023/05/14 17:09:30;;;;;;;5.50;3.20;;;;;;;18.17;50.28;98775.89;273497;1270;22329;-84
2023/05/14 17:15:32;;;;;;;5.20;2.80;;;;;;;18.09;50.73;98773.17;273165;1266;22841;-86
2023/05/14 17:21:33;;;;;;;4.90;2.30;;;;;;;17.93;51.43;98769.81;273232;1264;22347;-84
2023/05/14 17:27:35;;;;;;;4.60;3.20;;;;;;;17.71;52.49;98769.41;273420;1269;23167;-83
2023/05/14 17:33:35;;;;;;;4.80;3.00;;;;;;;17.25;55.28;98761.95;273357;1269;22446;-84
2023/05/14 17:39:37;;;;;;;13.20;3.60;;;;;;;17.04;56.75;98751.11;273457;1270;23389;-83
2023/05/14 17:45:38;;;;;;;4.80;3.20;;;;;;;16.91;57.64;98749.45;273046;1267;22441;-83
2023/05/14 17:51:39;;;;;;;6.40;3.90;;;;;;;16.72;59.31;98753.44;273340;1260;22302;-83
2023/05/14 17:57:40;;;;;;;3.10;2.20;;;;;;;16.40;59.82;98760.89;273483;1267;22325;-83
2023/05/14 18:03:42;;;;;;;2.90;2.10;;;;;;;16.16;59.76;98765.43;273490;1269;22328;-82
2023/05/14 18:09:43;;;;;;;4.10;2.00;;;;;;;15.93;60.77;98766.02;273241;1269;22300;-83
2023/05/14 18:15:44;;;;;;;2.40;1.60;;;;;;;15.67;61.53;98751.31;273509;1269;22552;-84
2023/05/14 18:21:46;;;;;;;2.40;1.50;;;;;;;15.48;62.11;98743.90;273388;1270;22422;-85
2023/05/14 18:27:49;;;;;;;3.50;1.80;;;;;;;15.38;62.57;98754.32;273591;1270;22336;-85
2023/05/14 18:33:50;;;;;;;5.80;3.20;;;;;;;15.29;63.83;98760.64;273579;1268;22172;-84
2023/05/14 18:39:53;;;;;;;4.10;2.30;;;;;;;15.17;64.45;98763.22;273474;1258;22329;-85
2023/05/14 18:45:54;;;;;;;4.30;2.90;;;;;;;15.05;65.29;98779.88;273555;1270;22346;-84
2023/05/14 18:51:55;;;;;;;5.10;3.90;;;;;;;14.91;66.05;98795.93;273361;1269;22299;-82
2023/05/14 18:57:56;;;;;;;5.30;3.10;;;;;;;14.66;67.88;98791.36;271339;1264;22333;-82
2023/05/14 19:03:58;;;;;;;5.00;3.10;;;;;;;14.52;69.36;98785.17;272541;1270;22351;-86
2023/05/14 19:09:59;;;;;;;3.80;2.70;;;;;;;14.49;69.57;98791.95;273310;1260;22229;-82
2023/05/14 19:16:01;;;;;;;8.30;3.90;;;;;;;14.43;71.67;98807.13;273149;1267;22410;-86
2023/05/14 19:22:02;;;;;;;5.50;3.90;;;;;;;14.36;74.44;98810.16;273335;1270;22444;-85
2023/05/14 19:28:03;;;;;;;7.20;4.10;;;;;;;14.38;73.61;98811.33;273622;1257;23553;-84
2023/05/14 19:34:05;;;;;;;5.50;3.90;;;;;;;14.33;73.10;98813.72;273600;1257;22203;-84
2023/05/14 19:40:06;;;;;;;10.50;4.60;;;;;;;14.27;72.89;98815.02;273674;1269;22322;-85
2023/05/14 19:46:07;;;;;;;6.20;3.90;;;;;;;14.17;73.68;98818.13;273600;1267;22524;-84
2023/05/14 19:52:10;;;;;;;4.90;3.60;;;;;;;14.04;74.84;98821.19;273092;1270;22550;-84
2023/05/14 19:58:11;;;;;;;6.10;4.80;;;;;;;13.89;77.09;98818.91;270992;1258;23807;-83
2023/05/14 20:04:14;;;;;;;7.40;4.50;;;;;;;13.62;78.29;98816.83;270783;1260;23443;-84
2023/05/14 20:10:16;;;;;;;8.80;4.90;;;;;;;13.50;79.96;98798.88;271039;1269;22555;-82
2023/05/14 20:16:17;;;;;;;9.10;5.70;;;;;;;13.43;80.56;98777.61;271700;1260;23362;-84
2023/05/14 20:22:18;;;;;;;12.20;7.80;;;;;;;13.26;81.58;98754.90;273486;1269;22333;-83
2023/05/14 20:28:19;;;;;;;8.70;5.80;;;;;;;13.17;82.81;98740.01;273517;1269;22551;-82
2023/05/14 20:34:20;;;;;;;8.10;5.10;;;;;;;13.02;82.79;98720.89;272135;1267;22404;-83
2023/05/14 20:40:22;;;;;;;5.50;4.00;;;;;;;12.87;83.23;98700.51;273172;1269;23693;-83
2023/05/14 20:46:23;;;;;;;11.50;6.20;;;;;;;12.74;83.37;98682.41;273499;1266;22207;-83
2023/05/14 20:52:24;;;;;;;11.80;5.40;;;;;;;12.63;83.24;98665.88;273009;1254;22897;-84
2023/05/14 20:58:26;;;;;;;8.00;4.80;;;;;;;12.51;84.03;98655.70;273439;1269;22227;-84
2023/05/14 21:04:26;;;;;;;11.10;5.60;;;;;;;12.46;84.62;98633.59;273591;1254;22984;-84
2023/05/14 21:10:28;;;;;;;6.60;4.30;;;;;;;12.42;85.05;98617.30;273509;1269;23244;-84
2023/05/14 21:16:29;;;;;;;5.70;3.80;;;;;;;12.40;85.60;98604.44;273542;1262;22340;-85
2023/05/14 21:22:30;;;;;;;5.70;4.40;;;;;;;12.35;86.14;98589.08;273477;1269;22478;-85
2023/05/14 21:28:31;;;;;;;6.60;4.00;;;;;;;12.34;86.53;98591.66;273595;1261;22222;-85
2023/05/14 21:34:32;;;;;;;8.30;4.40;;;;;;;12.36;86.83;98593.62;271381;1257;22392;-84
2023/05/14 21:41:25;;;;;;;7.40;4.40;;;;;;;12.37;87.31;98592.45;271156;1269;23754;-86
2023/05/14 21:48:30;;;;;;;6.00;4.00;;;;;;;12.40;87.55;98583.89;269673;1282;23888;-84
2023/05/14 21:55:18;;;;;;;5.60;3.80;;;;;;;12.37;88.07;98571.26;271410;1275;22375;-84
2023/05/14 22:24:26;;;;;;;7.70;3.80;;;;;;;12.27;89.30;98538.52;269839;1278;22280;-84
2023/05/14 22:32:09;;;;;;;6.60;3.60;;;;;;;12.22;89.93;98528.58;269187;1283;22697;-84
2023/05/14 22:39:46;;;;;;;5.50;4.00;;;;;;;12.17;90.41;98536.20;270440;1274;22534;-84
2023/05/14 22:46:43;;;;;;;7.70;4.30;;;;;;;12.12;90.86;98534.17;270798;1269;22481;-85
2023/05/14 22:53:10;;;;;;;5.10;4.00;;;;;;;12.07;91.30;98525.80;271521;1269;22220;-86
2023/05/14 23:30:05;;;;;;;8.20;4.70;;;;;;;11.79;94.27;98473.67;271942;1270;22601;-86
2023/05/14 23:52:21;;;;;;;9.80;5.30;;;;;;;11.66;96.56;98445.88;273123;1269;22617;-86
2023/05/14 23:58:24;;;;;;;;;;;;;;;11.65;97.02;98436.17;272585;1269;23282;-87
